Time;durP1;ratioP1;P1;durP2;ratioP2;P2;SDS_P1;SDS_P2;PMS_P1;PMS_P2;Temp;Humidity;BMP_temperature;BMP_pressure;BME280_temperature;BME280_humidity;BME280_pressure;Samples;Min_cycle;Max_cycle;Signal;HPM_P1;HPM_P2
2023/04/13 00:00:36;;;;;;;1.17;0.63;;;;;;;14.04;64.54;99387.69;5026199;28;20044;-57
2023/04/13 00:03:03;;;;;;;0.50;0.50;;;;;;;14.04;64.37;99377.81;5029444;28;20419;-57
2023/04/13 00:05:30;;;;;;;0.60;0.60;;;;;;;14.03;64.21;99384.19;5025659;28;20053;-57
2023/04/13 00:07:56;;;;;;;0.60;0.60;;;;;;;14.02;64.31;99377.13;5026055;28;20360;-57
2023/04/13 00:10:22;;;;;;;0.68;0.65;;;;;;;14.02;64.14;99369.09;5025834;28;20083;-57
2023/04/13 00:12:49;;;;;;;0.63;0.63;;;;;;;14.03;64.59;99376.16;5029477;28;20091;-57
2023/04/13 00:15:16;;;;;;;0.73;0.60;;;;;;;14.02;64.14;99374.44;5025729;28;20032;-57
2023/04/13 00:17:42;;;;;;;1.05;0.80;;;;;;;14.03;64.32;99373.47;5026342;28;20444;-57
2023/04/13 00:20:14;;;;;;;0.52;0.52;;;;;;;14.03;64.52;99364.59;5025445;28;20387;-57
2023/04/13 00:22:41;;;;;;;1.63;0.70;;;;;;;14.02;64.25;99369.09;5026330;28;20449;-57
2023/04/13 00:25:09;;;;;;;0.60;0.50;;;;;;;14.01;64.18;99367.44;5022443;28;20034;-57
2023/04/13 00:27:36;;;;;;;1.15;0.65;;;;;;;14.01;64.39;99370.13;5025305;28;20045;-57
2023/04/13 00:30:02;;;;;;;0.63;0.63;;;;;;;14.01;64.53;99367.44;5025224;28;20140;-57
2023/04/13 00:32:27;;;;;;;0.70;0.60;;;;;;;14.01;64.13;99372.78;5021432;28;20503;-57
2023/04/13 00:34:53;;;;;;;1.05;0.77;;;;;;;14.01;64.47;99355.88;5025347;28;20034;-57
2023/04/13 00:37:19;;;;;;;0.85;0.60;;;;;;;14.00;64.23;99364.91;5026851;28;20087;-57
2023/04/13 00:39:48;;;;;;;1.25;0.63;;;;;;;14.00;64.67;99359.56;5026387;28;20116;-57
2023/04/13 00:42:13;;;;;;;0.88;0.50;;;;;;;14.00;64.13;99375.63;5027257;28;20037;-57
2023/04/13 00:44:39;;;;;;;1.25;0.60;;;;;;;14.00;64.55;99376.44;5025199;28;20067;-57
2023/04/13 00:47:07;;;;;;;0.73;0.60;;;;;;;14.00;64.42;99365.75;5025024;28;20505;-57
2023/04/13 00:49:33;;;;;;;0.60;0.60;;;;;;;13.99;64.22;99364.09;5024739;28;20049;-57
2023/04/13 00:52:02;;;;;;;1.65;0.70;;;;;;;13.99;64.21;99369.44;5023638;28;20037;-57
2023/04/13 00:54:28;;;;;;;0.45;0.45;;;;;;;13.99;64.54;99368.56;5024922;28;20040;-57
2023/04/13 00:56:58;;;;;;;0.88;0.50;;;;;;;13.98;64.30;99373.09;5024778;28;20034;-57
2023/04/13 00:59:27;;;;;;;0.80;0.50;;;;;;;13.97;64.33;99368.72;5024798;28;20038;-57
2023/04/13 01:01:56;;;;;;;1.95;0.40;;;;;;;13.98;64.15;99364.22;5024485;28;20432;-57
2023/04/13 01:04:26;;;;;;;1.38;0.60;;;;;;;13.97;64.46;99355.34;5027669;28;20041;-57
2023/04/13 01:07:11;;;;;;;0.60;0.60;;;;;;;13.97;64.22;99360.69;5025250;28;20041;-57
2023/04/13 01:09:37;;;;;;;0.93;0.40;;;;;;;13.97;64.28;99359.88;5024645;28;20017;-57
2023/04/13 01:12:13;;;;;;;0.98;0.50;;;;;;;13.96;64.18;99353.69;5024791;28;20033;-57
2023/04/13 01:14:54;;;;;;;0.65;0.60;;;;;;;13.96;64.25;99359.03;5024592;28;20032;-57
2023/04/13 01:17:22;;;;;;;;;;;;;;;14.03;64.02;99354.75;5024906;28;20026;-57
2023/04/13 01:19:50;;;;;;;0.98;0.70;;;;;;;13.96;64.23;99353.69;5024363;28;19986;-57
2023/04/13 01:22:19;;;;;;;0.90;0.70;;;;;;;13.95;64.08;99360.00;5024921;28;20076;-57
2023/04/13 01:25:20;;;;;;;0.52;0.52;;;;;;;13.96;64.18;99369.75;5025874;28;20048;-57
2023/04/13 01:27:51;;;;;;;0.33;0.33;;;;;;;13.95;63.96;99354.66;5027520;28;20482;-57
2023/04/13 01:30:21;;;;;;;1.38;0.65;;;;;;;13.94;64.10;99365.53;5024591;28;20022;-57
2023/04/13 01:32:49;;;;;;;0.85;0.55;;;;;;;13.93;63.95;99369.19;5022461;28;20033;-57
2023/04/13 01:35:15;;;;;;;1.60;0.80;;;;;;;13.93;63.90;99364.69;5021728;28;20030;-57
2023/04/13 01:37:44;;;;;;;0.40;0.40;;;;;;;13.93;64.30;99369.19;5026475;28;20037;-57
2023/04/13 01:40:11;;;;;;;1.88;0.73;;;;;;;13.92;63.91;99383.56;5024014;28;20436;-57
2023/04/13 01:42:40;;;;;;;0.40;0.40;;;;;;;13.92;64.09;99379.06;5024151;28;20395;-57
2023/04/13 01:45:10;;;;;;;0.68;0.63;;;;;;;13.92;64.01;99389.78;5023966;28;20044;-57
2023/04/13 01:47:40;;;;;;;1.98;0.47;;;;;;;13.91;64.34;99390.75;5027296;28;20041;-57
2023/04/13 01:50:33;;;;;;;1.00;0.50;;;;;;;13.94;64.33;99403.00;5025334;28;20025;-57
2023/04/13 01:53:14;;;;;;;0.88;0.50;;;;;;;13.92;64.09;99410.31;5024119;28;20437;-57
2023/04/13 01:55:40;;;;;;;0.63;0.60;;;;;;;13.91;63.75;99409.50;5023790;28;20037;-57
2023/04/13 01:58:09;;;;;;;1.30;0.82;;;;;;;13.90;63.96;99410.50;5023873;28;20037;-57
2023/04/13 02:00:36;;;;;;;1.27;0.40;;;;;;;13.91;64.05;99408.66;5023320;28;20059;-57
2023/04/13 02:03:09;;;;;;;0.73;0.50;;;;;;;13.90;63.77;99421.19;5022837;28;20062;-57
2023/04/13 02:05:41;;;;;;;0.73;0.60;;;;;;;13.90;63.68;99423.88;5020366;28;20030;-57
2023/04/13 02:08:07;;;;;;;0.88;0.47;;;;;;;13.90;63.82;99426.56;5021374;28;20072;-57
2023/04/13 02:10:35;;;;;;;0.73;0.73;;;;;;;13.88;64.04;99420.53;5023554;28;20038;-57
2023/04/13 02:13:02;;;;;;;0.55;0.50;;;;;;;13.89;63.83;99425.69;5022601;28;20033;-57
2023/04/13 02:15:28;;;;;;;0.80;0.57;;;;;;;13.89;63.98;99435.56;5023352;28;20026;-57
2023/04/13 02:17:54;;;;;;;0.57;0.50;;;;;;;13.88;63.69;99437.41;5023160;28;20117;-57
2023/04/13 02:20:19;;;;;;;0.52;0.52;;;;;;;13.89;63.55;99440.91;5023366;28;20044;-57
2023/04/13 02:22:45;;;;;;;1.02;0.55;;;;;;;13.88;63.64;99447.28;5024185;28;20041;-57
2023/04/13 02:25:11;;;;;;;0.98;0.50;;;;;;;13.88;63.74;99460.66;5023244;28;20087;-57
2023/04/13 02:27:38;;;;;;;0.43;0.40;;;;;;;13.88;63.81;99457.97;5023420;28;20146;-57
2023/04/13 02:30:08;;;;;;;0.80;0.63;;;;;;;13.86;63.43;99459.97;5022633;28;20026;-57
2023/04/13 02:32:39;;;;;;;1.10;0.73;;;;;;;13.88;63.74;99463.31;5022019;28;20037;-57
2023/04/13 02:35:10;;;;;;;0.47;0.40;;;;;;;13.86;63.44;99476.84;5023025;28;20128;-57
2023/04/13 02:37:38;;;;;;;1.23;0.60;;;;;;;13.86;63.82;99476.84;5023295;28;20063;-57
2023/04/13 02:40:11;;;;;;;0.32;0.30;;;;;;;13.87;63.44;99480.34;5022814;28;20080;-57
2023/04/13 02:42:37;;;;;;;1.52;0.73;;;;;;;13.86;63.64;99479.53;5021584;28;20387;-57
2023/04/13 02:45:06;;;;;;;3.67;0.77;;;;;;;13.86;63.56;99494.75;5022899;28;20025;-57
2023/04/13 02:47:32;;;;;;;0.75;0.40;;;;;;;13.87;63.66;99483.03;5022933;28;20065;-57
2023/04/13 02:49:58;;;;;;;1.48;0.50;;;;;;;13.86;63.27;99490.22;5023158;28;20086;-57
2023/04/13 02:52:23;;;;;;;0.55;0.40;;;;;;;13.86;63.49;99519.66;5022873;28;20542;-57
2023/04/13 02:54:53;;;;;;;1.42;0.50;;;;;;;13.86;63.70;99524.19;5022437;28;20079;-57
2023/04/13 02:57:19;;;;;;;1.98;0.60;;;;;;;13.85;63.29;99522.47;5023460;28;20032;-57
2023/04/13 02:59:45;;;;;;;0.95;0.50;;;;;;;13.83;63.47;99511.94;5022665;28;20060;-57
2023/04/13 03:02:12;;;;;;;0.98;0.55;;;;;;;13.84;63.63;99524.31;5022538;28;20409;-57
2023/04/13 03:04:37;;;;;;;0.40;0.40;;;;;;;13.84;63.18;99531.50;5022583;28;20029;-57
2023/04/13 03:07:04;;;;;;;1.30;0.43;;;;;;;13.84;63.52;99515.44;5022785;28;20909;-57
2023/04/13 03:09:30;;;;;;;0.73;0.40;;;;;;;13.83;63.45;99525.31;5022605;28;20044;-57
2023/04/13 03:11:55;;;;;;;0.75;0.60;;;;;;;13.84;63.04;99536.84;5022573;28;20041;-57
2023/04/13 03:14:21;;;;;;;0.73;0.50;;;;;;;13.84;63.22;99534.16;5023245;28;20034;-57
2023/04/13 03:16:50;;;;;;;0.63;0.60;;;;;;;13.84;63.67;99540.38;5023370;28;20026;-57
2023/04/13 03:19:16;;;;;;;0.90;0.70;;;;;;;13.84;63.41;99542.19;5022602;28;20034;-57
2023/04/13 03:21:44;;;;;;;0.93;0.60;;;;;;;13.83;63.08;99548.56;5022437;28;20121;-57
2023/04/13 03:24:11;;;;;;;0.93;0.50;;;;;;;13.84;63.57;99548.41;5025879;28;20037;-57
2023/04/13 03:26:37;;;;;;;0.65;0.50;;;;;;;13.84;63.54;99552.88;5022303;28;20380;-57
2023/04/13 03:29:02;;;;;;;1.10;0.40;;;;;;;13.83;63.44;99556.56;5024540;28;20033;-57
2023/04/13 03:31:29;;;;;;;1.50;0.68;;;;;;;13.83;63.47;99561.94;5026390;28;20033;-57
2023/04/13 03:33:56;;;;;;;1.02;0.60;;;;;;;13.82;63.33;99569.13;5028778;28;20087;-57
2023/04/13 03:36:22;;;;;;;1.25;0.55;;;;;;;13.82;63.80;99576.28;5027077;28;20088;-57
2023/04/13 03:38:47;;;;;;;1.33;0.55;;;;;;;13.81;63.05;99566.59;5026850;28;20480;-57
2023/04/13 03:41:12;;;;;;;1.48;0.70;;;;;;;13.81;63.55;99570.09;5026281;28;20073;-57
2023/04/13 03:43:38;;;;;;;0.50;0.47;;;;;;;13.81;63.05;99590.66;5026519;28;20052;-57
2023/04/13 03:46:03;;;;;;;0.75;0.60;;;;;;;13.80;63.07;99584.47;5026169;28;20033;-57
2023/04/13 03:48:29;;;;;;;0.73;0.40;;;;;;;13.81;63.53;99593.34;5027690;28;20486;-57
2023/04/13 03:50:55;;;;;;;0.80;0.70;;;;;;;13.81;62.92;99593.34;5028132;28;20026;-57
2023/04/13 03:53:20;;;;;;;0.50;0.50;;;;;;;13.80;63.35;99591.66;5027066;28;20116;-57
2023/04/13 03:55:45;;;;;;;0.50;0.50;;;;;;;13.79;63.31;99603.34;5023345;28;20033;-57
2023/04/13 03:58:11;;;;;;;0.82;0.57;;;;;;;13.79;62.87;99604.19;5027415;28;20064;-57
2023/04/13 04:00:36;;;;;;;0.90;0.60;;;;;;;13.78;63.39;99609.69;5029181;28;20034;-57
2023/04/13 04:03:02;;;;;;;0.73;0.65;;;;;;;13.79;63.10;99608.69;5028083;28;20052;-57
2023/04/13 04:05:27;;;;;;;2.28;0.88;;;;;;;13.78;63.14;99612.34;5025818;28;20116;-57
2023/04/13 04:07:52;;;;;;;1.48;0.60;;;;;;;13.78;63.23;99613.19;5026365;28;20091;-57
2023/04/13 04:10:18;;;;;;;0.73;0.40;;;;;;;13.78;63.05;99609.69;5022171;28;20025;-57
2023/04/13 04:12:44;;;;;;;0.63;0.50;;;;;;;13.77;63.23;99622.22;5025741;28;20090;-57
2023/04/13 04:15:09;;;;;;;0.95;0.52;;;;;;;13.78;63.22;99628.41;5025932;28;20034;-57
2023/04/13 04:17:35;;;;;;;0.85;0.73;;;;;;;13.77;62.77;99632.09;5029336;28;20533;-57
2023/04/13 04:20:02;;;;;;;1.92;0.60;;;;;;;13.77;62.98;99640.13;5025729;28;20057;-57
2023/04/13 04:22:28;;;;;;;0.77;0.43;;;;;;;13.77;63.23;99648.13;5025823;28;20037;-57
2023/04/13 04:24:57;;;;;;;1.15;0.40;;;;;;;13.77;63.30;99648.13;5027928;28;20030;-57
2023/04/13 04:27:25;;;;;;;0.70;0.57;;;;;;;13.76;62.81;99652.63;5025857;28;20026;-57
2023/04/13 04:29:51;;;;;;;0.47;0.47;;;;;;;13.75;62.82;99650.13;5026190;28;20064;-57
2023/04/13 04:32:18;;;;;;;1.48;0.65;;;;;;;13.76;63.03;99654.47;5026508;28;20030;-57
2023/04/13 04:34:45;;;;;;;1.30;0.82;;;;;;;13.75;63.25;99650.97;5024051;28;20472;-57
2023/04/13 04:37:12;;;;;;;0.65;0.65;;;;;;;13.75;63.19;99660.81;5026248;28;20395;-57
2023/04/13 04:39:43;;;;;;;0.80;0.60;;;;;;;13.75;62.57;99661.66;5024211;28;20040;-57
2023/04/13 04:42:09;;;;;;;1.02;0.70;;;;;;;13.75;63.19;99668.84;5025417;28;20022;-57
2023/04/13 04:44:36;;;;;;;1.73;0.80;;;;;;;13.75;63.23;99671.53;5025143;28;20037;-57
2023/04/13 04:47:03;;;;;;;0.75;0.60;;;;;;;13.74;62.96;99681.34;5025069;28;20121;-57
2023/04/13 04:49:29;;;;;;;0.88;0.73;;;;;;;13.74;62.69;99689.38;5024841;28;20022;-57
2023/04/13 04:51:54;;;;;;;0.50;0.50;;;;;;;13.73;62.93;99690.38;5025070;28;20057;-57
2023/04/13 04:54:20;;;;;;;0.77;0.63;;;;;;;13.74;62.89;99688.56;5025515;28;20061;-57
2023/04/13 04:56:47;;;;;;;1.85;0.80;;;;;;;13.74;62.77;99691.22;5028953;28;20402;-57
2023/04/13 04:59:12;;;;;;;1.20;0.50;;;;;;;13.73;62.99;99692.19;5025057;28;20053;-57
2023/04/13 05:01:38;;;;;;;1.15;0.60;;;;;;;13.72;63.04;99688.69;5024678;28;20044;-57
2023/04/13 05:04:04;;;;;;;1.60;0.60;;;;;;;13.73;62.79;99694.88;5024902;28;20034;-57
2023/04/13 05:06:35;;;;;;;1.23;0.80;;;;;;;13.73;62.79;99701.09;5023917;28;20029;-57
2023/04/13 05:09:03;;;;;;;0.65;0.60;;;;;;;13.73;62.82;99706.44;5028053;28;20044;-57
2023/04/13 05:11:29;;;;;;;1.02;0.65;;;;;;;13.72;62.81;99706.59;5027805;28;20100;-57
2023/04/13 05:13:55;;;;;;;0.75;0.75;;;;;;;13.71;62.85;99696.84;5025187;28;20120;-57
2023/04/13 05:16:21;;;;;;;1.48;0.65;;;;;;;13.72;62.84;99702.06;5024403;28;20030;-57
2023/04/13 05:18:48;;;;;;;0.75;0.68;;;;;;;13.71;63.10;99707.56;5024232;28;20124;-57
2023/04/13 05:21:14;;;;;;;1.63;0.60;;;;;;;13.71;62.75;99702.22;5024727;28;20378;-57
2023/04/13 05:23:40;;;;;;;1.02;0.80;;;;;;;13.71;62.87;99707.56;5024379;28;20478;-57
2023/04/13 05:26:08;;;;;;;0.73;0.70;;;;;;;13.70;62.94;99712.06;5023097;28;20521;-57
2023/04/13 05:28:34;;;;;;;0.70;0.60;;;;;;;13.71;63.25;99719.13;5032597;28;20022;-57
2023/04/13 05:31:08;;;;;;;1.25;0.75;;;;;;;13.72;63.46;99720.78;5031609;28;20112;-57
2023/04/13 05:33:34;;;;;;;1.48;0.70;;;;;;;13.73;63.79;99721.63;5027999;28;20025;-57
2023/04/13 05:36:00;;;;;;;0.90;0.77;;;;;;;13.73;63.72;99721.63;5032547;28;20017;-57
2023/04/13 05:38:25;;;;;;;1.98;0.90;;;;;;;13.72;63.69;99726.16;5032294;28;20090;-57
2023/04/13 05:40:52;;;;;;;1.08;0.70;;;;;;;13.74;63.69;99734.03;5032328;28;20029;-57
2023/04/13 05:43:18;;;;;;;1.23;0.93;;;;;;;13.73;63.70;99735.88;5032728;28;20034;-57
2023/04/13 05:45:43;;;;;;;0.90;0.80;;;;;;;13.74;63.94;99734.03;5028625;28;20029;-57
2023/04/13 05:48:09;;;;;;;1.27;0.88;;;;;;;13.73;63.97;99738.53;5024774;28;20026;-57
2023/04/13 05:50:34;;;;;;;4.32;0.90;;;;;;;13.74;64.09;99750.91;5016857;28;20472;-57
2023/04/13 05:53:00;;;;;;;0.88;0.80;;;;;;;13.74;63.75;99750.06;5020609;28;20030;-57
2023/04/13 05:55:26;;;;;;;1.63;0.80;;;;;;;13.74;64.17;99750.06;5020751;28;20030;-57
2023/04/13 05:57:52;;;;;;;3.42;0.90;;;;;;;13.74;64.17;99752.75;5017227;28;20048;-57
2023/04/13 06:00:18;;;;;;;2.08;0.80;;;;;;;13.73;63.91;99765.28;5024325;28;20860;-57
2023/04/13 06:02:46;;;;;;;1.08;0.65;;;;;;;13.74;63.97;99761.63;5027526;28;20041;-57
2023/04/13 06:05:15;;;;;;;0.93;0.80;;;;;;;13.75;63.95;99775.84;5032028;28;20131;-57
2023/04/13 06:07:43;;;;;;;0.60;0.60;;;;;;;13.76;64.37;99780.19;5032485;28;20480;-57
2023/04/13 06:10:09;;;;;;;1.60;0.73;;;;;;;13.75;64.46;99792.75;5026059;28;20029;-57
2023/04/13 06:12:34;;;;;;;0.82;0.68;;;;;;;13.75;64.46;99795.41;5028385;28;20361;-57
2023/04/13 06:15:00;;;;;;;2.03;0.82;;;;;;;13.76;64.89;99801.59;5027923;28;20076;-57
2023/04/13 06:17:26;;;;;;;3.47;0.73;;;;;;;13.75;64.55;99807.97;5026816;28;20099;-57
2023/04/13 06:19:53;;;;;;;2.83;0.98;;;;;;;13.75;65.19;99802.59;5024515;28;20044;-57
2023/04/13 06:22:18;;;;;;;1.02;0.77;;;;;;;13.75;64.79;99803.44;5022110;28;20034;-57
2023/04/13 06:24:44;;;;;;;2.40;0.82;;;;;;;13.76;64.78;99814.97;5019242;28;20382;-57
2023/04/13 06:27:10;;;;;;;1.00;0.90;;;;;;;13.74;64.70;99815.13;5027580;28;20041;-57
2023/04/13 06:29:36;;;;;;;3.17;1.10;;;;;;;13.74;64.53;99817.78;5013434;28;20110;-57
2023/04/13 06:32:03;;;;;;;1.55;0.60;;;;;;;13.74;65.06;99808.94;5027466;28;20052;-57
2023/04/13 06:34:29;;;;;;;5.20;0.85;;;;;;;13.75;64.93;99826.69;5025153;28;20057;-57
2023/04/13 06:36:54;;;;;;;3.83;0.93;;;;;;;13.74;64.92;99814.28;5024677;28;20471;-57
2023/04/13 06:39:20;;;;;;;2.38;1.10;;;;;;;13.74;65.04;99828.50;5024275;28;20034;-57
2023/04/13 06:41:46;;;;;;;7.88;1.00;;;;;;;13.73;64.96;99839.34;5022879;28;20113;-57
2023/04/13 06:44:12;;;;;;;0.90;0.80;;;;;;;13.73;65.18;99833.97;5012721;28;20034;-57
2023/04/13 06:46:37;;;;;;;1.23;0.80;;;;;;;13.73;64.75;99831.31;5026976;28;20040;-57
2023/04/13 06:49:03;;;;;;;3.15;0.98;;;;;;;13.74;64.78;99835.69;5020277;28;20030;-57
2023/04/13 06:51:29;;;;;;;2.67;0.80;;;;;;;13.72;64.65;99837.66;5020844;28;20026;-57
2023/04/13 06:53:54;;;;;;;10.25;1.30;;;;;;;13.71;64.91;99843.97;5020436;28;20422;-57
2023/04/13 06:56:20;;;;;;;1.92;1.00;;;;;;;13.73;64.72;99855.38;5023853;28;20057;-57
2023/04/13 06:58:45;;;;;;;1.13;0.85;;;;;;;13.72;64.81;99862.56;5029150;28;20038;-57
2023/04/13 07:01:11;;;;;;;1.77;1.05;;;;;;;13.71;64.77;99855.56;5027117;28;20044;-57
2023/04/13 07:03:36;;;;;;;2.55;1.05;;;;;;;13.72;64.46;99859.06;5020449;28;20478;-57
2023/04/13 07:06:02;;;;;;;3.75;1.05;;;;;;;13.71;64.69;99863.56;5022992;28;20036;-57
2023/04/13 07:08:28;;;;;;;3.33;0.90;;;;;;;13.71;64.21;99860.03;5023282;28;20021;-57
2023/04/13 07:10:54;;;;;;;1.85;0.65;;;;;;;13.71;64.22;99873.41;5020027;28;20091;-57
2023/04/13 07:13:20;;;;;;;1.20;0.90;;;;;;;13.71;64.64;99868.06;5024252;28;20022;-57
2023/04/13 07:15:45;;;;;;;1.52;0.85;;;;;;;13.69;64.35;99866.38;5023942;28;20033;-57
2023/04/13 07:18:11;;;;;;;1.48;0.80;;;;;;;13.69;64.38;99882.44;5018194;28;20034;-57
2023/04/13 07:20:38;;;;;;;1.15;0.90;;;;;;;13.69;64.41;99884.28;5018227;28;20030;-57
2023/04/13 07:23:04;;;;;;;1.10;0.90;;;;;;;13.69;64.39;99890.47;5022946;28;20021;-57
2023/04/13 07:25:29;;;;;;;2.08;0.80;;;;;;;13.69;64.09;99895.81;5018991;28;20053;-57
2023/04/13 07:27:54;;;;;;;1.05;0.85;;;;;;;13.70;64.04;99899.31;5021039;28;20105;-57
2023/04/13 07:30:20;;;;;;;1.08;0.88;;;;;;;13.69;64.34;99911.88;5020229;28;20109;-57
2023/04/13 07:32:45;;;;;;;2.55;0.90;;;;;;;13.70;64.19;99907.34;5023184;28;20029;-57
2023/04/13 07:35:11;;;;;;;1.63;1.00;;;;;;;13.69;64.09;99917.22;5020944;28;20033;-57
2023/04/13 07:37:36;;;;;;;3.10;1.15;;;;;;;13.69;64.09;99914.53;5023850;28;20037;-57
2023/04/13 07:40:04;;;;;;;0.82;0.68;;;;;;;13.69;64.19;99914.53;5022011;28;20033;-57
2023/04/13 07:42:29;;;;;;;2.03;0.90;;;;;;;13.69;64.20;99919.06;5020451;28;20387;-57
2023/04/13 07:44:55;;;;;;;1.77;0.90;;;;;;;13.69;64.35;99929.75;5023783;28;20030;-57
2023/04/13 07:47:21;;;;;;;3.28;1.00;;;;;;;13.69;64.26;99935.09;5012138;28;20423;-57
2023/04/13 07:49:46;;;;;;;2.75;0.90;;;;;;;13.69;64.36;99935.94;5027606;28;20076;-57
2023/04/13 07:52:12;;;;;;;3.65;0.90;;;;;;;13.69;64.47;99946.63;5019771;28;20108;-57
2023/04/13 07:54:37;;;;;;;2.65;0.90;;;;;;;13.69;64.09;99943.97;5027509;28;20071;-57
2023/04/13 07:57:04;;;;;;;1.27;0.77;;;;;;;13.70;64.14;99947.47;5020173;28;20025;-57
2023/04/13 07:59:29;;;;;;;0.85;0.82;;;;;;;13.69;64.17;99957.34;5023253;28;20030;-57
2023/04/13 08:01:55;;;;;;;1.02;0.90;;;;;;;13.69;64.20;99960.00;5019458;28;20050;-57
2023/04/13 08:04:20;;;;;;;1.60;0.85;;;;;;;13.70;64.00;99955.50;5026906;28;20456;-57
2023/04/13 08:06:47;;;;;;;0.70;0.70;;;;;;;13.68;63.74;99963.66;5024743;28;20468;-57
2023/04/13 08:09:13;;;;;;;4.43;0.98;;;;;;;13.69;64.02;99968.03;5022595;28;20072;-57
2023/04/13 08:11:38;;;;;;;1.25;0.90;;;;;;;13.69;64.23;99968.03;5024957;28;20059;-57
2023/04/13 08:14:04;;;;;;;0.90;0.80;;;;;;;13.69;63.95;99968.03;5021351;28;20108;-57
2023/04/13 08:16:33;;;;;;;1.35;0.80;;;;;;;13.69;63.90;99986.78;5033149;28;20040;-57
2023/04/13 08:19:02;;;;;;;1.90;0.85;;;;;;;13.69;64.36;99985.94;5027670;28;20472;-57
2023/04/13 08:21:28;;;;;;;3.30;1.00;;;;;;;13.69;63.93;99978.75;5024382;28;20420;-57
2023/04/13 08:23:55;;;;;;;1.25;0.80;;;;;;;13.69;64.07;99983.25;5030627;28;20060;-57
2023/04/13 08:26:20;;;;;;;1.35;0.60;;;;;;;13.69;64.18;99984.09;5034549;28;20383;-57
2023/04/13 08:28:47;;;;;;;1.00;0.68;;;;;;;13.69;64.34;99992.13;5023546;28;20022;-57
2023/04/13 08:31:12;;;;;;;2.65;1.00;;;;;;;13.69;63.98;99994.78;5019057;28;20030;-57
2023/04/13 08:33:38;;;;;;;1.20;0.90;;;;;;;13.69;64.29;100001.97;5023094;28;20503;-57
2023/04/13 08:36:04;;;;;;;1.65;0.85;;;;;;;13.70;64.32;100006.31;5030319;28;20165;-57
2023/04/13 08:38:32;;;;;;;2.53;0.93;;;;;;;13.69;64.38;100020.72;5023218;28;20034;-57
2023/04/13 08:40:58;;;;;;;1.83;1.00;;;;;;;13.70;64.27;100022.38;5023714;28;20087;-56
2023/04/13 08:43:23;;;;;;;2.78;1.05;;;;;;;13.69;64.06;100018.88;5022796;28;20026;-57
2023/04/13 08:45:49;;;;;;;2.13;0.98;;;;;;;13.69;64.23;100023.38;5030739;28;20084;-57
2023/04/13 08:48:17;;;;;;;2.70;1.00;;;;;;;13.71;64.18;100025.91;5029428;28;20036;-57
2023/04/13 08:50:44;;;;;;;3.15;0.88;;;;;;;13.70;64.29;100038.44;5022390;28;20044;-57
2023/04/13 08:53:09;;;;;;;3.88;0.95;;;;;;;13.70;64.24;100030.41;5028447;28;20022;-57
2023/04/13 08:55:43;;;;;;;1.50;0.82;;;;;;;13.70;64.06;100041.09;5032180;28;20044;-57
2023/04/13 08:58:11;;;;;;;1.95;0.90;;;;;;;13.71;63.86;100049.97;5031642;28;20468;-57
2023/04/13 09:00:38;;;;;;;2.63;0.90;;;;;;;13.71;64.04;100049.97;5026294;28;20035;-57
2023/04/13 09:03:06;;;;;;;3.95;1.25;;;;;;;13.71;63.79;100058.00;5026650;28;20057;-57
2023/04/13 09:05:37;;;;;;;3.70;0.95;;;;;;;13.72;64.20;100065.06;5026652;28;20537;-57
2023/04/13 09:08:04;;;;;;;1.67;1.08;;;;;;;13.73;64.03;100067.59;5029221;28;20468;-57
2023/04/13 09:10:29;;;;;;;1.75;1.27;;;;;;;13.74;63.89;100071.09;5024385;28;20467;-57
2023/04/13 09:12:55;;;;;;;2.55;1.13;;;;;;;13.75;64.11;100075.50;5022524;28;20041;-57
2023/04/13 09:15:21;;;;;;;4.18;1.02;;;;;;;13.74;63.86;100082.66;5028555;28;20379;-57
2023/04/13 09:17:47;;;;;;;3.13;1.35;;;;;;;13.74;63.88;100063.09;5022025;28;20030;-57
2023/04/13 09:20:20;;;;;;;2.83;1.20;;;;;;;13.74;64.18;100076.47;5028573;28;20091;-56
2023/04/13 09:22:46;;;;;;;3.03;1.13;;;;;;;13.73;63.89;100083.66;5026685;28;20025;-57
2023/04/13 09:25:29;;;;;;;3.58;0.95;;;;;;;13.76;63.80;100082.50;5024702;28;20103;-57
2023/04/13 09:27:55;;;;;;;2.35;1.08;;;;;;;13.74;63.88;100100.53;5023701;28;20032;-57
2023/04/13 09:30:23;;;;;;;2.70;0.82;;;;;;;13.74;64.23;100098.69;5026006;28;20022;-57
2023/04/13 09:33:05;;;;;;;3.03;1.10;;;;;;;13.75;64.14;100107.59;5030010;28;20111;-57
2023/04/13 09:35:31;;;;;;;2.88;1.00;;;;;;;13.73;64.23;100112.22;5025789;28;20035;-57
2023/04/13 09:37:58;;;;;;;3.25;0.95;;;;;;;13.74;63.86;100108.56;5019336;28;20026;-57
2023/04/13 09:40:23;;;;;;;2.65;1.10;;;;;;;13.74;64.20;100125.44;5025885;28;20472;-57
2023/04/13 09:43:06;;;;;;;2.17;0.98;;;;;;;13.75;63.89;100119.13;5026050;28;20026;-57
2023/04/13 09:45:43;;;;;;;2.55;1.00;;;;;;;13.75;64.17;100124.47;5029207;28;20037;-57
2023/04/13 09:48:20;;;;;;;3.60;0.95;;;;;;;13.75;64.10;100137.03;5023922;28;20026;-57
2023/04/13 09:50:57;;;;;;;3.22;1.25;;;;;;;13.75;64.39;100145.06;5033452;28;20041;-57
2023/04/13 09:53:22;;;;;;;2.15;1.10;;;;;;;13.74;63.88;100148.69;5027074;28;20036;-57
2023/04/13 09:55:56;;;;;;;3.50;1.10;;;;;;;13.75;64.15;100150.41;5023957;28;20037;-57
2023/04/13 09:58:22;;;;;;;2.05;1.10;;;;;;;13.74;63.88;100152.22;5021739;28;20573;-57
2023/04/13 10:00:47;;;;;;;2.03;1.20;;;;;;;13.75;64.14;100169.13;5020518;28;20026;-57
2023/04/13 10:03:14;;;;;;;2.97;1.10;;;;;;;13.73;63.83;100171.94;5021972;28;20058;-57
2023/04/13 10:05:44;;;;;;;2.45;1.05;;;;;;;13.74;64.17;100172.78;5021261;28;20033;-56
2023/04/13 10:08:09;;;;;;;2.00;1.05;;;;;;;13.73;63.93;100171.06;5021438;28;20060;-57
2023/04/13 10:10:36;;;;;;;1.77;0.73;;;;;;;13.74;63.79;100184.31;5026019;28;20430;-57
2023/04/13 10:13:27;;;;;;;3.17;1.17;;;;;;;13.75;64.21;100183.34;5025065;28;20033;-57
2023/04/13 10:16:25;;;;;;;3.83;1.10;;;;;;;13.77;64.02;100196.59;5020566;28;20068;-57
2023/04/13 10:19:00;;;;;;;2.45;0.98;;;;;;;13.75;64.01;100202.06;5020448;28;20029;-57
2023/04/13 10:21:38;;;;;;;2.50;1.10;;;;;;;13.76;64.30;100202.91;5030371;28;20029;-57
2023/04/13 10:24:08;;;;;;;3.17;0.82;;;;;;;13.75;64.64;100207.44;5024788;28;20058;-57
2023/04/13 10:26:35;;;;;;;2.58;1.08;;;;;;;13.76;64.59;100219.81;5028207;28;20033;-57
2023/04/13 10:29:02;;;;;;;1.75;0.77;;;;;;;13.75;64.62;100215.44;5031523;28;20026;-57
2023/04/13 10:31:38;;;;;;;3.83;1.00;;;;;;;13.76;64.73;100213.63;5031632;28;20483;-57
2023/04/13 10:34:07;;;;;;;3.60;1.00;;;;;;;13.75;64.66;100220.81;5031602;28;20464;-57
2023/04/13 10:36:43;;;;;;;2.08;1.10;;;;;;;13.76;64.31;100227.00;5028413;28;20029;-57
2023/04/13 10:39:09;;;;;;;6.30;2.05;;;;;;;13.75;64.74;100222.63;5029073;28;20067;-57
2023/04/13 10:41:36;;;;;;;4.38;1.08;;;;;;;13.76;64.97;100240.38;5029293;28;20378;-57
2023/04/13 10:44:06;;;;;;;1.58;1.08;;;;;;;13.75;64.85;100238.69;5032168;28;20022;-57
2023/04/13 10:46:33;;;;;;;2.88;1.25;;;;;;;13.75;64.93;100244.03;5031957;28;20040;-57
2023/04/13 10:49:00;;;;;;;4.25;1.45;;;;;;;13.76;64.98;100245.72;5031804;28;20040;-57
2023/04/13 10:51:36;;;;;;;1.50;1.00;;;;;;;13.76;64.83;100235.84;5032119;28;20029;-57
2023/04/13 10:54:03;;;;;;;4.43;1.35;;;;;;;13.77;64.96;100247.44;5032691;28;20025;-57
2023/04/13 10:56:28;;;;;;;3.05;1.25;;;;;;;13.77;64.95;100252.78;5026773;28;20446;-57
2023/04/13 10:58:54;;;;;;;3.63;1.25;;;;;;;13.76;64.75;100257.25;5027959;28;20025;-57
2023/04/13 11:01:19;;;;;;;8.18;1.48;;;;;;;13.77;64.74;100258.13;5031474;28;20029;-57
2023/04/13 11:03:46;;;;;;;3.47;1.00;;;;;;;13.76;64.76;100267.13;5031010;28;20092;-57
2023/04/13 11:06:12;;;;;;;3.10;1.33;;;;;;;13.77;65.03;100268.84;5031458;28;20038;-57
2023/04/13 11:08:38;;;;;;;4.15;1.25;;;;;;;13.76;65.32;100284.03;5031275;28;20034;-56
2023/04/13 11:11:04;;;;;;;3.17;1.10;;;;;;;13.77;64.94;100282.22;5025280;28;20064;-57
2023/04/13 11:13:30;;;;;;;3.08;1.20;;;;;;;13.78;64.92;100286.56;5017894;28;20096;-57
2023/04/13 11:16:03;;;;;;;7.30;1.75;;;;;;;13.78;65.23;100282.06;5031412;28;20029;-57
2023/04/13 11:18:29;;;;;;;5.50;1.48;;;;;;;13.79;65.11;100288.28;5023196;28;20495;-57
2023/04/13 11:20:55;;;;;;;2.00;1.08;;;;;;;13.80;65.38;100288.16;5023641;28;20036;-57
2023/04/13 11:23:22;;;;;;;6.18;1.40;;;;;;;13.81;65.22;100287.16;5031151;28;20021;-57
2023/04/13 11:25:53;;;;;;;3.72;1.40;;;;;;;13.81;65.45;100287.16;5024334;28;20036;-56
2023/04/13 11:28:20;;;;;;;4.83;1.23;;;;;;;13.82;65.34;100283.50;5031438;28;20044;-57
2023/04/13 11:30:54;;;;;;;3.58;1.10;;;;;;;13.82;65.20;100283.50;5030112;28;20029;-57
2023/04/13 11:33:28;;;;;;;4.45;1.25;;;;;;;13.83;65.33;100285.19;5027839;28;20095;-57